sensor_id;sensor_type;location;lat;lon;timestamp;pressure;altitude;pressure_sealevel;temperature;humidity
78223;BME280;67497;53.058;21.618;2024-03-08T00:01:59;101345.16;;;-3.34;84.00
78223;BME280;67497;53.058;21.618;2024-03-08T00:03:59;101349.66;;;-3.36;84.60
78223;BME280;67497;53.058;21.618;2024-03-08T00:05:59;101338.22;;;-3.41;84.35
78223;BME280;67497;53.058;21.618;2024-03-08T00:08:00;101347.19;;;-3.43;84.84
78223;BME280;67497;53.058;21.618;2024-03-08T00:10:00;101339.13;;;-3.42;83.74
78223;BME280;67497;53.058;21.618;2024-03-08T00:12:00;101345.22;;;-3.37;83.49
78223;BME280;67497;53.058;21.618;2024-03-08T00:14:01;101336.38;;;-3.40;83.87
78223;BME280;67497;53.058;21.618;2024-03-08T00:16:02;101336.59;;;-3.48;84.61
78223;BME280;67497;53.058;21.618;2024-03-08T00:18:02;101347.19;;;-3.43;85.03
78223;BME280;67497;53.058;21.618;2024-03-08T00:20:03;101342.91;;;-3.50;85.83
78223;BME280;67497;53.058;21.618;2024-03-08T00:22:08;101347.31;;;-3.48;85.67
78223;BME280;67497;53.058;21.618;2024-03-08T00:24:10;101340.00;;;-3.41;86.02
78223;BME280;67497;53.058;21.618;2024-03-08T00:26:10;101331.97;;;-3.41;86.25
78223;BME280;67497;53.058;21.618;2024-03-08T00:28:10;101334.78;;;-3.47;86.76
78223;BME280;67497;53.058;21.618;2024-03-08T00:30:15;101325.19;;;-3.56;86.79
78223;BME280;67497;53.058;21.618;2024-03-08T00:32:15;101331.56;;;-3.60;87.32
78223;BME280;67497;53.058;21.618;2024-03-08T00:34:17;101333.22;;;-3.54;86.16
78223;BME280;67497;53.058;21.618;2024-03-08T00:36:17;101327.19;;;-3.64;85.33
78223;BME280;67497;53.058;21.618;2024-03-08T00:38:18;101337.03;;;-3.65;85.73
78223;BME280;67497;53.058;21.618;2024-03-08T00:40:19;101327.19;;;-3.63;85.83
78223;BME280;67497;53.058;21.618;2024-03-08T00:42:19;101340.63;;;-3.66;85.45
78223;BME280;67497;53.058;21.618;2024-03-08T00:44:20;101333.66;;;-3.73;84.79
78223;BME280;67497;53.058;21.618;2024-03-08T00:46:20;101328.28;;;-3.71;85.70
78223;BME280;67497;53.058;21.618;2024-03-08T00:48:20;101332.81;;;-3.73;85.87
78223;BME280;67497;53.058;21.618;2024-03-08T00:50:21;101326.53;;;-3.72;86.08
78223;BME280;67497;53.058;21.618;2024-03-08T00:52:21;101337.03;;;-3.65;86.19
78223;BME280;67497;53.058;21.618;2024-03-08T00:54:24;101330.16;;;-3.75;85.73
78223;BME280;67497;53.058;21.618;2024-03-08T00:56:24;101329.34;;;-3.78;85.00
78223;BME280;67497;53.058;21.618;2024-03-08T00:58:25;101322.31;;;-3.82;84.98
78223;BME280;67497;53.058;21.618;2024-03-08T01:00:25;101324.38;;;-3.93;85.73
78223;BME280;67497;53.058;21.618;2024-03-08T01:02:26;101313.75;;;-3.96;85.92
78223;BME280;67497;53.058;21.618;2024-03-08T01:04:26;101330.63;;;-3.93;86.03
78223;BME280;67497;53.058;21.618;2024-03-08T01:06:29;101338.69;;;-3.94;85.85
78223;BME280;67497;53.058;21.618;2024-03-08T01:08:29;101331.41;;;-3.89;85.94
78223;BME280;67497;53.058;21.618;2024-03-08T01:10:29;101318.16;;;-3.94;87.03
78223;BME280;67497;53.058;21.618;2024-03-08T01:12:30;101320.06;;;-3.99;86.31
78223;BME280;67497;53.058;21.618;2024-03-08T01:14:30;101315.69;;;-4.01;86.02
78223;BME280;67497;53.058;21.618;2024-03-08T01:16:31;101328.72;;;-3.89;85.51
78223;BME280;67497;53.058;21.618;2024-03-08T01:18:33;101320.81;;;-3.92;85.34
78223;BME280;67497;53.058;21.618;2024-03-08T01:20:33;101320.72;;;-3.89;84.96
78223;BME280;67497;53.058;21.618;2024-03-08T01:22:34;101322.47;;;-3.88;84.93
78223;BME280;67497;53.058;21.618;2024-03-08T01:24:34;101311.13;;;-3.98;86.35
78223;BME280;67497;53.058;21.618;2024-03-08T01:26:35;101314.78;;;-4.02;85.71
78223;BME280;67497;53.058;21.618;2024-03-08T01:28:35;101315.59;;;-3.98;85.51
78223;BME280;67497;53.058;21.618;2024-03-08T01:30:35;101310.19;;;-3.97;85.25
78223;BME280;67497;53.058;21.618;2024-03-08T01:32:37;101309.22;;;-3.93;84.98
78223;BME280;67497;53.058;21.618;2024-03-08T01:34:38;101314.53;;;-3.91;85.66
78223;BME280;67497;53.058;21.618;2024-03-08T01:36:38;101303.09;;;-3.98;85.17
78223;BME280;67497;53.058;21.618;2024-03-08T01:38:38;101298.66;;;-3.99;84.74
78223;BME280;67497;53.058;21.618;2024-03-08T01:40:39;101307.44;;;-3.94;84.77
78223;BME280;67497;53.058;21.618;2024-03-08T01:42:41;101304.00;;;-3.99;85.84
78223;BME280;67497;53.058;21.618;2024-03-08T01:44:41;101302.44;;;-4.07;86.47
78223;BME280;67497;53.058;21.618;2024-03-08T01:46:44;101304.97;;;-4.01;85.42
78223;BME280;67497;53.058;21.618;2024-03-08T01:48:45;101303.81;;;-3.91;85.41
78223;BME280;67497;53.058;21.618;2024-03-08T01:50:45;101287.34;;;-4.10;86.06
78223;BME280;67497;53.058;21.618;2024-03-08T01:52:46;101305.78;;;-3.98;85.16
78223;BME280;67497;53.058;21.618;2024-03-08T01:54:46;101297.78;;;-3.99;85.52
78223;BME280;67497;53.058;21.618;2024-03-08T01:56:47;101307.56;;;-3.98;85.51
78223;BME280;67497;53.058;21.618;2024-03-08T01:58:47;101297.00;;;-4.03;85.87
78223;BME280;67497;53.058;21.618;2024-03-08T02:00:48;101303.13;;;-3.99;85.97
78223;BME280;67497;53.058;21.618;2024-03-08T02:02:54;101291.53;;;-4.00;86.12
78223;BME280;67497;53.058;21.618;2024-03-08T02:04:54;101297.78;;;-3.99;85.85
78223;BME280;67497;53.058;21.618;2024-03-08T02:06:55;101289.00;;;-4.04;86.10
78223;BME280;67497;53.058;21.618;2024-03-08T02:08:55;101296.25;;;-4.09;86.52
78223;BME280;67497;53.058;21.618;2024-03-08T02:10:55;101275.81;;;-4.12;86.00
78223;BME280;67497;53.058;21.618;2024-03-08T02:12:56;101290.09;;;-4.13;86.65
78223;BME280;67497;53.058;21.618;2024-03-08T02:14:56;101276.84;;;-4.17;86.42
78223;BME280;67497;53.058;21.618;2024-03-08T02:17:03;101273.34;;;-4.19;85.81
78223;BME280;67497;53.058;21.618;2024-03-08T02:19:04;101276.09;;;-4.22;86.02
78223;BME280;67497;53.058;21.618;2024-03-08T02:21:06;101275.97;;;-4.18;85.73
78223;BME280;67497;53.058;21.618;2024-03-08T02:23:07;101267.44;;;-4.34;85.49
78223;BME280;67497;53.058;21.618;2024-03-08T02:25:08;101267.22;;;-4.25;85.95
78223;BME280;67497;53.058;21.618;2024-03-08T02:27:09;101271.09;;;-4.38;86.05
78223;BME280;67497;53.058;21.618;2024-03-08T02:29:12;101269.28;;;-4.37;85.38
78223;BME280;67497;53.058;21.618;2024-03-08T02:31:13;101260.66;;;-4.48;86.06
78223;BME280;67497;53.058;21.618;2024-03-08T02:33:14;101272.97;;;-4.41;86.65
78223;BME280;67497;53.058;21.618;2024-03-08T02:35:17;101267.56;;;-4.38;86.17
78223;BME280;67497;53.058;21.618;2024-03-08T02:37:17;101266.81;;;-4.45;86.94
78223;BME280;67497;53.058;21.618;2024-03-08T02:39:18;101259.56;;;-4.40;86.85
78223;BME280;67497;53.058;21.618;2024-03-08T02:41:19;101263.00;;;-4.35;86.22
78223;BME280;67497;53.058;21.618;2024-03-08T02:43:21;101267.50;;;-4.37;85.05
78223;BME280;67497;53.058;21.618;2024-03-08T02:45:25;101259.63;;;-4.43;84.97
78223;BME280;67497;53.058;21.618;2024-03-08T02:47:25;101257.00;;;-4.44;85.14
78223;BME280;67497;53.058;21.618;2024-03-08T02:49:26;101255.38;;;-4.51;85.19
78223;BME280;67497;53.058;21.618;2024-03-08T02:51:28;101257.13;;;-4.50;85.61
78223;BME280;67497;53.058;21.618;2024-03-08T02:53:29;101256.16;;;-4.46;85.06
78223;BME280;67497;53.058;21.618;2024-03-08T02:55:30;101252.75;;;-4.53;85.88
78223;BME280;67497;53.058;21.618;2024-03-08T02:57:30;101255.34;;;-4.50;85.91
78223;BME280;67497;53.058;21.618;2024-03-08T02:59:30;101243.81;;;-4.52;85.80
78223;BME280;67497;53.058;21.618;2024-03-08T03:01:31;101250.88;;;-4.49;86.29
78223;BME280;67497;53.058;21.618;2024-03-08T03:03:32;101247.41;;;-4.53;85.76
78223;BME280;67497;53.058;21.618;2024-03-08T03:05:33;101241.97;;;-4.50;85.73
78223;BME280;67497;53.058;21.618;2024-03-08T03:07:34;101254.44;;;-4.49;86.25
78223;BME280;67497;53.058;21.618;2024-03-08T03:09:34;101243.81;;;-4.52;86.42
78223;BME280;67497;53.058;21.618;2024-03-08T03:11:35;101240.16;;;-4.48;87.00
78223;BME280;67497;53.058;21.618;2024-03-08T03:13:35;101243.66;;;-4.46;87.19
78223;BME280;67497;53.058;21.618;2024-03-08T03:15:35;101241.06;;;-4.49;87.97
78223;BME280;67497;53.058;21.618;2024-03-08T03:17:36;101248.09;;;-4.45;87.34
78223;BME280;67497;53.058;21.618;2024-03-08T03:19:37;101252.53;;;-4.44;87.35
78223;BME280;67497;53.058;21.618;2024-03-08T03:21:37;101239.09;;;-4.41;86.49
78223;BME280;67497;53.058;21.618;2024-03-08T03:23:39;101239.31;;;-4.50;86.18
78223;BME280;67497;53.058;21.618;2024-03-08T03:25:40;101233.13;;;-4.52;86.58
78223;BME280;67497;53.058;21.618;2024-03-08T03:27:41;101240.28;;;-4.54;86.27
78223;BME280;67497;53.058;21.618;2024-03-08T03:29:43;101252.69;;;-4.50;86.21
78223;BME280;67497;53.058;21.618;2024-03-08T03:31:45;101240.34;;;-4.57;86.19
78223;BME280;67497;53.058;21.618;2024-03-08T03:33:46;101245.00;;;-4.65;87.35
78223;BME280;67497;53.058;21.618;2024-03-08T03:35:47;101249.63;;;-4.71;87.16
78223;BME280;67497;53.058;21.618;2024-03-08T03:37:47;101249.63;;;-4.73;86.76
78223;BME280;67497;53.058;21.618;2024-03-08T03:40:07;101244.41;;;-4.76;86.46
78223;BME280;67497;53.058;21.618;2024-03-08T03:42:08;101244.53;;;-4.82;87.82
78223;BME280;67497;53.058;21.618;2024-03-08T03:44:08;101242.88;;;-4.89;87.58
78223;BME280;67497;53.058;21.618;2024-03-08T03:46:10;101244.66;;;-4.88;87.54
78223;BME280;67497;53.058;21.618;2024-03-08T03:48:10;101240.03;;;-4.80;87.85
78223;BME280;67497;53.058;21.618;2024-03-08T03:50:11;101238.38;;;-4.86;87.46
78223;BME280;67497;53.058;21.618;2024-03-08T03:52:11;101240.13;;;-4.85;87.17
78223;BME280;67497;53.058;21.618;2024-03-08T03:54:12;101234.16;;;-4.97;88.21
78223;BME280;67497;53.058;21.618;2024-03-08T03:56:13;101235.81;;;-4.92;87.93
78223;BME280;67497;53.058;21.618;2024-03-08T03:58:13;101247.41;;;-4.91;87.17
78223;BME280;67497;53.058;21.618;2024-03-08T04:00:14;101248.22;;;-4.89;86.90
78223;BME280;67497;53.058;21.618;2024-03-08T04:02:14;101237.53;;;-4.88;87.18
78223;BME280;67497;53.058;21.618;2024-03-08T04:04:15;101244.78;;;-4.94;87.59
78223;BME280;67497;53.058;21.618;2024-03-08T04:06:16;101237.59;;;-4.91;86.46
78223;BME280;67497;53.058;21.618;2024-03-08T04:08:16;101245.66;;;-4.94;86.32
78223;BME280;67497;53.058;21.618;2024-03-08T04:10:17;101239.44;;;-4.94;86.70
78223;BME280;67497;53.058;21.618;2024-03-08T04:12:17;101236.72;;;-4.91;87.07
78223;BME280;67497;53.058;21.618;2024-03-08T04:14:17;101241.09;;;-4.87;86.59
78223;BME280;67497;53.058;21.618;2024-03-08T04:16:18;101231.38;;;-4.91;86.29
78223;BME280;67497;53.058;21.618;2024-03-08T04:18:19;101232.19;;;-4.89;86.13
78223;BME280;67497;53.058;21.618;2024-03-08T04:20:19;101235.81;;;-4.90;85.58
78223;BME280;67497;53.058;21.618;2024-03-08T04:22:20;101235.69;;;-4.86;85.53
78223;BME280;67497;53.058;21.618;2024-03-08T04:24:20;101233.16;;;-4.92;85.84
78223;BME280;67497;53.058;21.618;2024-03-08T04:26:21;101240.13;;;-4.85;85.20
78223;BME280;67497;53.058;21.618;2024-03-08T04:28:21;101233.09;;;-4.89;85.92
78223;BME280;67497;53.058;21.618;2024-03-08T04:30:21;101221.38;;;-4.83;85.68
78223;BME280;67497;53.058;21.618;2024-03-08T04:32:22;101231.94;;;-4.77;86.06
78223;BME280;67497;53.058;21.618;2024-03-08T04:34:23;101226.09;;;-4.94;86.67
78223;BME280;67497;53.058;21.618;2024-03-08T04:36:24;101231.44;;;-4.94;87.01
78223;BME280;67497;53.058;21.618;2024-03-08T04:38:25;101226.13;;;-4.96;86.69
78223;BME280;67497;53.058;21.618;2024-03-08T04:40:25;101231.41;;;-4.93;86.80
78223;BME280;67497;53.058;21.618;2024-03-08T04:42:29;101229.63;;;-4.94;86.33
78223;BME280;67497;53.058;21.618;2024-03-08T04:44:30;101222.56;;;-4.96;87.49
78223;BME280;67497;53.058;21.618;2024-03-08T04:46:31;101231.50;;;-4.97;86.47
78223;BME280;67497;53.058;21.618;2024-03-08T04:48:32;101221.81;;;-5.01;85.81
78223;BME280;67497;53.058;21.618;2024-03-08T04:50:32;101222.66;;;-4.99;85.46
78223;BME280;67497;53.058;21.618;2024-03-08T04:52:32;101215.63;;;-5.03;85.26
78223;BME280;67497;53.058;21.618;2024-03-08T04:54:32;101215.56;;;-5.02;84.67
78223;BME280;67497;53.058;21.618;2024-03-08T04:56:33;101217.44;;;-5.05;85.65
78223;BME280;67497;53.058;21.618;2024-03-08T04:58:36;101215.56;;;-5.00;85.95
78223;BME280;67497;53.058;21.618;2024-03-08T05:00:37;101212.97;;;-5.05;85.00
78223;BME280;67497;53.058;21.618;2024-03-08T05:02:38;101208.44;;;-5.01;85.13
78223;BME280;67497;53.058;21.618;2024-03-08T05:04:41;101213.91;;;-5.06;84.29
78223;BME280;67497;53.058;21.618;2024-03-08T05:06:42;101205.72;;;-5.00;85.01
78223;BME280;67497;53.058;21.618;2024-03-08T05:08:42;101217.31;;;-4.99;85.29
78223;BME280;67497;53.058;21.618;2024-03-08T05:10:43;101208.31;;;-4.95;86.00
78223;BME280;67497;53.058;21.618;2024-03-08T05:12:44;101208.16;;;-4.89;85.56
78223;BME280;67497;53.058;21.618;2024-03-08T05:14:45;101217.69;;;-4.77;85.81
78223;BME280;67497;53.058;21.618;2024-03-08T05:16:49;101207.06;;;-4.79;85.30
78223;BME280;67497;53.058;21.618;2024-03-08T05:18:49;101207.06;;;-4.79;85.68
78223;BME280;67497;53.058;21.618;2024-03-08T05:20:51;101206.72;;;-4.65;85.07
78223;BME280;67497;53.058;21.618;2024-03-08T05:22:51;101203.78;;;-4.55;85.67
78223;BME280;67497;53.058;21.618;2024-03-08T05:24:52;101203.88;;;-4.22;84.17
78223;BME280;67497;53.058;21.618;2024-03-08T05:26:52;101206.19;;;-4.10;84.03
78223;BME280;67497;53.058;21.618;2024-03-08T05:28:52;101210.88;;;-3.54;81.78
78223;BME280;67497;53.058;21.618;2024-03-08T05:30:53;101213.34;;;-3.16;79.64
78223;BME280;67497;53.058;21.618;2024-03-08T05:32:56;101220.81;;;-2.68;77.55
78223;BME280;67497;53.058;21.618;2024-03-08T05:34:57;101209.22;;;-2.15;75.37
78223;BME280;67497;53.058;21.618;2024-03-08T05:36:57;101218.63;;;-1.52;73.47
78223;BME280;67497;53.058;21.618;2024-03-08T05:38:58;101214.00;;;-1.01;71.49
78223;BME280;67497;53.058;21.618;2024-03-08T05:40:59;101205.44;;;-0.22;68.05
78223;BME280;67497;53.058;21.618;2024-03-08T05:42:59;101206.34;;;0.39;65.49
78223;BME280;67497;53.058;21.618;2024-03-08T05:44:59;101203.59;;;0.99;63.38
78223;BME280;67497;53.058;21.618;2024-03-08T05:47:00;101216.41;;;1.50;61.95
78223;BME280;67497;53.058;21.618;2024-03-08T05:49:00;101200.41;;;2.00;60.67
78223;BME280;67497;53.058;21.618;2024-03-08T05:51:05;101202.66;;;2.26;59.62
78223;BME280;67497;53.058;21.618;2024-03-08T05:53:05;101200.09;;;2.90;57.33
78223;BME280;67497;53.058;21.618;2024-03-08T05:55:09;101200.56;;;2.98;56.43
78223;BME280;67497;53.058;21.618;2024-03-08T05:57:09;101204.63;;;3.38;55.15
78223;BME280;67497;53.058;21.618;2024-03-08T05:59:11;101194.16;;;3.48;54.38
78223;BME280;67497;53.058;21.618;2024-03-08T06:01:11;101200.69;;;3.91;54.46
78223;BME280;67497;53.058;21.618;2024-03-08T06:03:12;101202.25;;;4.24;52.37
78223;BME280;67497;53.058;21.618;2024-03-08T06:05:13;101202.66;;;4.48;52.43
78223;BME280;67497;53.058;21.618;2024-03-08T06:07:13;101209.50;;;4.40;52.50
78223;BME280;67497;53.058;21.618;2024-03-08T06:09:14;101211.44;;;4.52;52.39
78223;BME280;67497;53.058;21.618;2024-03-08T06:11:18;101213.09;;;4.40;52.94
78223;BME280;67497;53.058;21.618;2024-03-08T06:13:19;101208.50;;;4.27;53.76
78223;BME280;67497;53.058;21.618;2024-03-08T06:15:19;101222.78;;;5.02;51.58
78223;BME280;67497;53.058;21.618;2024-03-08T06:17:21;101210.25;;;5.28;50.77
78223;BME280;67497;53.058;21.618;2024-03-08T06:19:25;101199.66;;;6.19;49.03
78223;BME280;67497;53.058;21.618;2024-03-08T06:21:26;101204.03;;;5.95;49.73
78223;BME280;67497;53.058;21.618;2024-03-08T06:23:27;101210.78;;;6.16;47.85
78223;BME280;67497;53.058;21.618;2024-03-08T06:25:27;101203.22;;;6.46;48.26
78223;BME280;67497;53.058;21.618;2024-03-08T06:27:27;101211.50;;;6.45;46.78
78223;BME280;67497;53.058;21.618;2024-03-08T06:29:28;101213.94;;;6.75;47.29
78223;BME280;67497;53.058;21.618;2024-03-08T06:31:28;101205.69;;;7.63;46.10
78223;BME280;67497;53.058;21.618;2024-03-08T06:33:29;101207.41;;;7.76;44.81
78223;BME280;67497;53.058;21.618;2024-03-08T06:35:30;101205.56;;;7.28;44.59
78223;BME280;67497;53.058;21.618;2024-03-08T06:37:35;101211.88;;;7.77;44.63
78223;BME280;67497;53.058;21.618;2024-03-08T06:39:35;101198.59;;;7.24;44.95
78223;BME280;67497;53.058;21.618;2024-03-08T06:41:36;101217.66;;;7.24;45.17
78223;BME280;67497;53.058;21.618;2024-03-08T06:43:36;101201.66;;;7.07;46.91
78223;BME280;67497;53.058;21.618;2024-03-08T06:45:37;101206.19;;;6.69;46.88
78223;BME280;67497;53.058;21.618;2024-03-08T06:47:37;101211.47;;;6.97;47.12
78223;BME280;67497;53.058;21.618;2024-03-08T06:49:38;101217.22;;;6.92;47.38
78223;BME280;67497;53.058;21.618;2024-03-08T06:51:39;101200.38;;;7.61;45.83
78223;BME280;67497;53.058;21.618;2024-03-08T06:53:41;101202.19;;;7.12;46.79
78223;BME280;67497;53.058;21.618;2024-03-08T06:55:41;101204.38;;;7.07;47.29
78223;BME280;67497;53.058;21.618;2024-03-08T06:57:41;101199.81;;;7.07;47.89
78223;BME280;67497;53.058;21.618;2024-03-08T06:59:42;101213.75;;;7.15;47.52
78223;BME280;67497;53.058;21.618;2024-03-08T07:01:42;101207.75;;;6.33;49.84
78223;BME280;67497;53.058;21.618;2024-03-08T07:03:43;101211.22;;;6.23;49.74
78223;BME280;67497;53.058;21.618;2024-03-08T07:05:44;101205.09;;;6.19;49.69
78223;BME280;67497;53.058;21.618;2024-03-08T07:07:46;101214.69;;;6.25;50.96
78223;BME280;67497;53.058;21.618;2024-03-08T07:09:48;101208.16;;;6.67;49.81
78223;BME280;67497;53.058;21.618;2024-03-08T07:11:49;101199.63;;;7.47;46.94
78223;BME280;67497;53.058;21.618;2024-03-08T07:13:54;101193.69;;;7.29;47.62
78223;BME280;67497;53.058;21.618;2024-03-08T07:15:55;101187.81;;;7.10;48.27
78223;BME280;67497;53.058;21.618;2024-03-08T07:17:56;101201.88;;;7.65;47.42
78223;BME280;67497;53.058;21.618;2024-03-08T07:19:56;101201.88;;;7.65;46.00
78223;BME280;67497;53.058;21.618;2024-03-08T07:21:59;101204.88;;;7.86;45.09
78223;BME280;67497;53.058;21.618;2024-03-08T07:23:59;101195.59;;;8.36;44.87
78223;BME280;67497;53.058;21.618;2024-03-08T07:26:00;101192.13;;;8.69;43.67
78223;BME280;67497;53.058;21.618;2024-03-08T07:28:01;101194.47;;;9.08;42.38
78223;BME280;67497;53.058;21.618;2024-03-08T07:30:02;101210.16;;;8.82;44.17
78223;BME280;67497;53.058;21.618;2024-03-08T07:32:03;101204.13;;;8.55;43.62
78223;BME280;67497;53.058;21.618;2024-03-08T07:34:21;101208.38;;;9.49;42.44
78223;BME280;67497;53.058;21.618;2024-03-08T07:36:21;101206.25;;;9.53;43.17
78223;BME280;67497;53.058;21.618;2024-03-08T07:38:24;101196.19;;;9.65;42.62
78223;BME280;67497;53.058;21.618;2024-03-08T07:40:25;101198.59;;;10.01;40.77
78223;BME280;67497;53.058;21.618;2024-03-08T07:42:25;101195.59;;;10.47;40.60
78223;BME280;67497;53.058;21.618;2024-03-08T07:44:26;101195.97;;;10.53;40.02
78223;BME280;67497;53.058;21.618;2024-03-08T07:46:26;101182.59;;;9.85;41.28
78223;BME280;67497;53.058;21.618;2024-03-08T07:48:26;101195.72;;;10.77;39.22
78223;BME280;67497;53.058;21.618;2024-03-08T07:50:27;101184.63;;;10.78;39.55
78223;BME280;67497;53.058;21.618;2024-03-08T07:52:27;101188.34;;;10.98;38.54
78223;BME280;67497;53.058;21.618;2024-03-08T07:54:28;101190.94;;;11.51;37.94
78223;BME280;67497;53.058;21.618;2024-03-08T07:56:28;101190.13;;;11.09;38.78
78223;BME280;67497;53.058;21.618;2024-03-08T07:58:28;101183.84;;;11.18;38.89
78223;BME280;67497;53.058;21.618;2024-03-08T08:00:47;101182.41;;;10.09;40.02
78223;BME280;67497;53.058;21.618;2024-03-08T08:02:49;101196.75;;;9.90;40.80
78223;BME280;67497;53.058;21.618;2024-03-08T08:04:49;101188.53;;;10.01;41.73
78223;BME280;67497;53.058;21.618;2024-03-08T08:06:50;101192.00;;;10.14;40.72
78223;BME280;67497;53.058;21.618;2024-03-08T08:08:51;101190.59;;;10.52;39.75
78223;BME280;67497;53.058;21.618;2024-03-08T08:10:51;101186.91;;;10.42;39.70
78223;BME280;67497;53.058;21.618;2024-03-08T08:12:52;101183.59;;;10.59;41.09
78223;BME280;67497;53.058;21.618;2024-03-08T08:14:52;101197.09;;;10.51;41.04
78223;BME280;67497;53.058;21.618;2024-03-08T08:16:52;101185.19;;;10.41;39.55
78223;BME280;67497;53.058;21.618;2024-03-08T08:18:53;101186.28;;;10.70;39.04
78223;BME280;67497;53.058;21.618;2024-03-08T08:20:57;101186.59;;;10.76;38.92
78223;BME280;67497;53.058;21.618;2024-03-08T08:22:57;101180.66;;;10.51;38.96
78223;BME280;67497;53.058;21.618;2024-03-08T08:24:59;101176.25;;;10.28;38.81
78223;BME280;67497;53.058;21.618;2024-03-08T08:26:59;101167.16;;;10.59;39.08
78223;BME280;67497;53.058;21.618;2024-03-08T08:29:00;101164.94;;;10.32;39.23
78223;BME280;67497;53.058;21.618;2024-03-08T08:31:01;101165.25;;;10.39;40.24
78223;BME280;67497;53.058;21.618;2024-03-08T08:33:01;101159.34;;;10.23;40.51
78223;BME280;67497;53.058;21.618;2024-03-08T08:35:05;101177.66;;;10.54;37.60
78223;BME280;67497;53.058;21.618;2024-03-08T08:37:06;101160.94;;;9.82;39.15
78223;BME280;67497;53.058;21.618;2024-03-08T08:39:09;101172.25;;;10.00;40.08
78223;BME280;67497;53.058;21.618;2024-03-08T08:41:13;101161.59;;;9.75;39.96
78223;BME280;67497;53.058;21.618;2024-03-08T08:43:14;101153.81;;;9.59;40.50
78223;BME280;67497;53.058;21.618;2024-03-08T08:45:14;101173.84;;;9.48;41.26
78223;BME280;67497;53.058;21.618;2024-03-08T08:47:17;101165.13;;;9.32;40.40
78223;BME280;67497;53.058;21.618;2024-03-08T08:49:19;101170.44;;;9.67;41.52
78223;BME280;67497;53.058;21.618;2024-03-08T08:51:20;101167.25;;;9.29;39.14
78223;BME280;67497;53.058;21.618;2024-03-08T08:53:20;101157.03;;;9.64;39.96
78223;BME280;67497;53.058;21.618;2024-03-08T08:55:22;101167.59;;;8.91;39.18
78223;BME280;67497;53.058;21.618;2024-03-08T08:57:25;101150.81;;;8.84;38.43
78223;BME280;67497;53.058;21.618;2024-03-08T08:59:27;101160.22;;;8.69;40.36
78223;BME280;67497;53.058;21.618;2024-03-08T09:01:27;101172.63;;;8.73;38.87
78223;BME280;67497;53.058;21.618;2024-03-08T09:03:29;101163.22;;;8.77;39.12
78223;BME280;67497;53.058;21.618;2024-03-08T09:05:30;101154.16;;;8.31;41.82
78223;BME280;67497;53.058;21.618;2024-03-08T09:07:30;101162.97;;;8.69;41.16
78223;BME280;67497;53.058;21.618;2024-03-08T09:09:30;101165.25;;;8.52;41.85
78223;BME280;67497;53.058;21.618;2024-03-08T09:11:31;101160.53;;;8.99;42.00
78223;BME280;67497;53.058;21.618;2024-03-08T09:13:32;101167.16;;;8.73;39.07
78223;BME280;67497;53.058;21.618;2024-03-08T09:15:35;101158.59;;;8.67;38.96
78223;BME280;67497;53.058;21.618;2024-03-08T09:17:37;101150.91;;;8.72;37.80
78223;BME280;67497;53.058;21.618;2024-03-08T09:19:39;101152.59;;;9.08;38.02
78223;BME280;67497;53.058;21.618;2024-03-08T09:21:40;101144.50;;;9.28;39.59
78223;BME280;67497;53.058;21.618;2024-03-08T09:23:40;101141.13;;;8.91;36.39
78223;BME280;67497;53.058;21.618;2024-03-08T09:25:41;101146.09;;;8.75;37.31
78223;BME280;67497;53.058;21.618;2024-03-08T09:27:41;101145.44;;;8.61;38.09
78223;BME280;67497;53.058;21.618;2024-03-08T09:29:42;101148.84;;;8.86;38.74
78223;BME280;67497;53.058;21.618;2024-03-08T09:31:44;101138.69;;;8.43;36.24
78223;BME280;67497;53.058;21.618;2024-03-08T09:33:46;101139.78;;;8.40;36.84
78223;BME280;67497;53.058;21.618;2024-03-08T09:35:46;101135.31;;;8.39;38.18
78223;BME280;67497;53.058;21.618;2024-03-08T09:37:48;101144.81;;;8.68;39.11
78223;BME280;67497;53.058;21.618;2024-03-08T09:39:51;101136.03;;;8.76;37.92
78223;BME280;67497;53.058;21.618;2024-03-08T09:41:52;101149.47;;;9.12;37.36
78223;BME280;67497;53.058;21.618;2024-03-08T09:43:52;101135.06;;;9.43;36.92
78223;BME280;67497;53.058;21.618;2024-03-08T09:45:53;101122.00;;;9.25;36.28
78223;BME280;67497;53.058;21.618;2024-03-08T09:47:55;101129.69;;;8.97;35.14
78223;BME280;67497;53.058;21.618;2024-03-08T09:49:55;101140.88;;;9.17;36.29
78223;BME280;67497;53.058;21.618;2024-03-08T09:51:56;101125.50;;;9.27;36.60
78223;BME280;67497;53.058;21.618;2024-03-08T09:53:56;101121.66;;;9.18;36.54
78223;BME280;67497;53.058;21.618;2024-03-08T09:55:58;101122.47;;;9.41;35.91
78223;BME280;67497;53.058;21.618;2024-03-08T09:58:00;101128.53;;;9.67;36.18
78223;BME280;67497;53.058;21.618;2024-03-08T10:00:20;101132.06;;;8.80;36.08
78223;BME280;67497;53.058;21.618;2024-03-08T10:02:24;101114.31;;;9.30;37.19
78223;BME280;67497;53.058;21.618;2024-03-08T10:04:24;101133.78;;;9.47;36.73
78223;BME280;67497;53.058;21.618;2024-03-08T10:06:26;101120.56;;;9.75;36.03
78223;BME280;67497;53.058;21.618;2024-03-08T10:08:29;101107.28;;;9.59;35.69
78223;BME280;67497;53.058;21.618;2024-03-08T10:10:30;101103.78;;;9.68;35.12
78223;BME280;67497;53.058;21.618;2024-03-08T10:12:30;101121.25;;;9.45;35.44
78223;BME280;67497;53.058;21.618;2024-03-08T10:14:31;101108.91;;;9.61;35.11
78223;BME280;67497;53.058;21.618;2024-03-08T10:16:32;101121.63;;;9.40;36.08
78223;BME280;67497;53.058;21.618;2024-03-08T10:18:34;101117.78;;;9.21;36.74
78223;BME280;67497;53.058;21.618;2024-03-08T10:20:34;101112.56;;;9.18;34.38
78223;BME280;67497;53.058;21.618;2024-03-08T10:22:34;101117.63;;;9.33;34.91
78223;BME280;67497;53.058;21.618;2024-03-08T10:24:35;101120.16;;;8.92;34.82
78223;BME280;67497;53.058;21.618;2024-03-08T10:26:36;101114.03;;;8.66;36.15
78223;BME280;67497;53.058;21.618;2024-03-08T10:28:37;101120.41;;;8.89;34.92